Terminal Aerodrome Forecast
Issued by NWS Billings, MT

Home | Current Version | Previous Version | Text Only | Print | Product List | Glossary On
Versions: 1 2 3 4 5 6 7 8 9 10 11 12 13 14 15 16 17 18 19 20 21 22 23 24 25 26 27 28 29 30 31
000
FTUS45 KBYZ 220101 AAB
TAFSHR
TAF AMD
KSHR 220101Z 2201/2224 31011KT P6SM VCSH SCT035 BKN060
      TEMPO 2201/2203 BKN014
     FM220300 03005KT P6SM FEW030 OVC050
     FM220600 VRB05KT P6SM FEW015
     FM221500 05006KT P6SM FEW030
     FM222100 09006KT P6SM -RA SCT020 OVC040=

USA.gov is the U.S. government's official web portal to all federal, state and local government web resources and services.